Time;durP1;ratioP1;P1;durP2;ratioP2;P2;SDS_P1;SDS_P2;PMS_P1;PMS_P2;Temp;Humidity;BMP_temperature;BMP_pressure;BME280_temperature;BME280_humidity;BME280_pressure;Samples;Min_cycle;Max_cycle;Signal;HPM_P1;HPM_P2
2022/01/19 00:00:31;;;;;;;1999.90;999.90;;;4.10;99.90;;;;;;5055505;28;20094;-65
2022/01/19 00:02:56;;;;;;;1999.90;999.90;;;3.80;99.90;;;;;;5057497;28;20041;-65
2022/01/19 00:05:22;;;;;;;1999.90;999.90;;;3.80;99.90;;;;;;5054764;28;20048;-66
2022/01/19 00:07:48;;;;;;;1999.90;999.90;;;3.80;99.90;;;;;;5054651;28;20057;-65
2022/01/19 00:10:19;;;;;;;1999.90;999.90;;;3.80;99.90;;;;;;5055783;28;20041;-66
2022/01/19 00:12:45;;;;;;;1999.90;999.90;;;3.80;99.90;;;;;;5055025;28;20123;-65
2022/01/19 00:15:11;;;;;;;1999.90;999.90;;;3.80;99.90;;;;;;5055887;28;20087;-65
2022/01/19 00:17:38;;;;;;;1999.90;999.90;;;3.80;99.90;;;;;;5055954;28;20049;-67
2022/01/19 00:20:05;;;;;;;1999.90;999.90;;;3.80;99.90;;;;;;5058620;28;20032;-65
2022/01/19 00:22:31;;;;;;;1999.90;999.90;;;3.80;99.90;;;;;;5074808;28;20059;-65
2022/01/19 00:24:57;;;;;;;1999.90;999.90;;;3.90;99.90;;;;;;5056117;28;20116;-66
2022/01/19 00:27:24;;;;;;;1999.90;999.90;;;3.80;99.90;;;;;;5054883;28;20052;-65
2022/01/19 00:29:50;;;;;;;1999.90;999.90;;;3.70;99.90;;;;;;5059857;28;20049;-66
2022/01/19 00:32:16;;;;;;;1999.90;999.90;;;3.70;99.90;;;;;;5056051;28;20055;-65
2022/01/19 00:34:42;;;;;;;1999.90;999.90;;;3.70;99.90;;;;;;5055064;28;20403;-66
2022/01/19 00:37:08;;;;;;;1999.90;999.90;;;3.60;99.90;;;;;;5054039;28;20051;-64
2022/01/19 00:39:34;;;;;;;1999.90;999.90;;;3.60;99.90;;;;;;5055920;28;20052;-66
2022/01/19 00:42:00;;;;;;;1999.90;999.90;;;3.70;99.90;;;;;;5053584;28;20075;-65
2022/01/19 00:44:26;;;;;;;1999.90;999.90;;;3.60;99.90;;;;;;5055237;28;20057;-67
2022/01/19 00:46:52;;;;;;;1999.90;999.90;;;3.70;99.90;;;;;;5062532;28;20394;-66
2022/01/19 00:49:18;;;;;;;1999.90;999.90;;;3.70;99.90;;;;;;5074728;28;20060;-65
2022/01/19 00:51:44;;;;;;;1999.90;999.90;;;3.70;99.90;;;;;;5057446;28;20040;-65
2022/01/19 00:54:09;;;;;;;1999.90;999.90;;;3.70;99.90;;;;;;5075642;28;20044;-66
2022/01/19 00:56:35;;;;;;;1999.90;999.90;;;3.70;99.90;;;;;;5072964;28;20041;-65
2022/01/19 00:59:01;;;;;;;1999.90;999.90;;;3.70;99.90;;;;;;5075191;28;20044;-66
2022/01/19 01:01:27;;;;;;;1999.90;999.90;;;3.70;99.90;;;;;;5074711;28;20395;-64
2022/01/19 01:03:53;;;;;;;1999.90;999.90;;;3.70;99.90;;;;;;5073626;28;20368;-65
2022/01/19 01:06:20;;;;;;;1999.90;999.90;;;3.60;99.90;;;;;;5054682;28;20053;-65
2022/01/19 01:08:46;;;;;;;1999.90;999.90;;;3.60;99.90;;;;;;5053418;28;20064;-64
2022/01/19 01:11:12;;;;;;;1999.90;999.90;;;3.70;99.90;;;;;;5053965;28;20045;-65
2022/01/19 01:16:40;;;;;;;1999.90;999.90;;;3.70;99.90;;;;;;5016342;28;20462;-65
2022/01/19 01:19:09;;;;;;;1999.90;999.90;;;3.70;99.90;;;;;;5035359;28;20045;-65
2022/01/19 01:21:37;;;;;;;1999.90;999.90;;;3.70;99.90;;;;;;5037411;28;20092;-65
2022/01/19 01:24:03;;;;;;;1999.90;999.90;;;3.80;99.90;;;;;;5042115;28;20045;-64
2022/01/19 01:26:30;;;;;;;1999.90;999.90;;;3.80;99.90;;;;;;5053726;28;20045;-65
2022/01/19 01:28:56;;;;;;;1999.90;999.90;;;3.80;99.90;;;;;;5053037;28;20052;-65
2022/01/19 01:31:22;;;;;;;1999.90;999.90;;;3.80;99.90;;;;;;5062108;28;20044;-65
2022/01/19 01:33:48;;;;;;;1999.90;999.90;;;3.80;99.90;;;;;;5074923;28;20054;-65
2022/01/19 01:36:15;;;;;;;1999.90;999.90;;;3.70;99.90;;;;;;5072906;28;20072;-64
2022/01/19 01:38:41;;;;;;;1999.90;999.90;;;3.80;99.90;;;;;;5072758;28;20044;-65
2022/01/19 01:41:13;;;;;;;1999.90;999.90;;;3.80;99.90;;;;;;5072880;28;20044;-65
2022/01/19 01:43:42;;;;;;;1999.90;999.90;;;3.80;99.90;;;;;;5060045;28;20050;-64
2022/01/19 01:46:19;;;;;;;1999.90;999.90;;;3.70;99.90;;;;;;5053431;28;20049;-65
2022/01/19 01:48:46;;;;;;;1999.90;999.90;;;3.80;99.90;;;;;;5060841;28;20044;-65
2022/01/19 01:53:58;;;;;;;1999.90;999.90;;;3.80;99.90;;;;;;5073322;28;20048;-65
2022/01/19 01:56:25;;;;;;;1999.90;999.90;;;3.70;99.90;;;;;;5073847;28;20075;-65
2022/01/19 01:58:57;;;;;;;1999.90;999.90;;;3.80;99.90;;;;;;5054924;28;20052;-65
2022/01/19 02:01:29;;;;;;;1999.90;999.90;;;3.80;99.90;;;;;;5074005;28;20490;-65
2022/01/19 02:03:57;;;;;;;1999.90;999.90;;;3.80;99.90;;;;;;5072146;28;20044;-65
2022/01/19 02:06:32;;;;;;;1999.90;999.90;;;3.90;99.90;;;;;;5041292;28;20052;-65
2022/01/19 02:09:17;;;;;;;1999.90;999.90;;;3.80;99.90;;;;;;5072868;28;20076;-65
2022/01/19 02:23:20;;;;;;;1999.90;999.90;;;3.80;99.90;;;;;;5052386;28;20486;-65
2022/01/19 02:25:51;;;;;;;1999.90;999.90;;;3.80;99.90;;;;;;5032515;28;20052;-65
2022/01/19 02:41:40;;;;;;;1999.90;999.90;;;3.80;99.90;;;;;;5053290;28;20053;-65
2022/01/19 02:44:10;;;;;;;1999.90;999.90;;;3.80;99.90;;;;;;5052271;28;20398;-65
2022/01/19 02:46:53;;;;;;;1999.90;999.90;;;3.90;99.90;;;;;;5052837;28;20506;-65
2022/01/19 02:49:21;;;;;;;1999.90;999.90;;;3.80;99.90;;;;;;5052827;28;20534;-67
2022/01/19 02:51:50;;;;;;;1999.90;999.90;;;3.90;99.90;;;;;;5069082;28;20120;-64
2022/01/19 02:54:19;;;;;;;1999.90;999.90;;;3.90;99.90;;;;;;5058610;28;20546;-64
2022/01/19 02:56:50;;;;;;;1999.90;999.90;;;3.90;99.90;;;;;;5051147;28;20102;-64
2022/01/19 02:59:25;;;;;;;1999.90;999.90;;;3.90;99.90;;;;;;5066855;28;20056;-65
2022/01/19 03:10:05;;;;;;;1999.90;999.90;;;3.80;99.90;;;;;;5048726;28;20487;-65
2022/01/19 03:12:31;;;;;;;1999.90;999.90;;;3.90;99.90;;;;;;5050994;28;20048;-64
2022/01/19 03:14:57;;;;;;;1999.90;999.90;;;3.90;99.90;;;;;;5052925;28;20395;-64
2022/01/19 03:17:23;;;;;;;1999.90;999.90;;;3.90;99.90;;;;;;5034721;28;20055;-65
2022/01/19 03:19:49;;;;;;;1999.90;999.90;;;3.90;99.90;;;;;;5034132;28;20056;-64
2022/01/19 03:22:18;;;;;;;1999.90;999.90;;;3.80;99.90;;;;;;5051043;28;20159;-65
2022/01/19 03:24:50;;;;;;;1999.90;999.90;;;3.80;99.90;;;;;;5052792;28;20049;-65
2022/01/19 03:27:17;;;;;;;1999.90;999.90;;;3.80;99.90;;;;;;5067997;28;20072;-66
2022/01/19 03:29:45;;;;;;;1999.90;999.90;;;3.80;99.90;;;;;;5063068;28;20041;-66
2022/01/19 03:32:12;;;;;;;1999.90;999.90;;;3.80;99.90;;;;;;5068017;28;20510;-66
2022/01/19 03:34:40;;;;;;;1999.90;999.90;;;3.90;99.90;;;;;;5072224;28;20061;-65
2022/01/19 03:37:08;;;;;;;1999.90;999.90;;;3.90;99.90;;;;;;5070418;28;20123;-65
2022/01/19 03:39:35;;;;;;;1999.90;999.90;;;3.90;99.90;;;;;;5054744;28;20231;-65
2022/01/19 03:42:01;;;;;;;1999.90;999.90;;;3.90;99.90;;;;;;5071375;28;20067;-64
2022/01/19 03:44:27;;;;;;;1999.90;999.90;;;4.00;99.90;;;;;;5056918;28;20045;-66
2022/01/19 03:46:57;;;;;;;1999.90;999.90;;;4.00;99.90;;;;;;5051448;28;20045;-66
2022/01/19 03:49:25;;;;;;;1999.90;999.90;;;3.90;99.90;;;;;;5034441;28;20495;-66
2022/01/19 03:51:58;;;;;;;1999.90;999.90;;;3.90;99.90;;;;;;5051148;28;20049;-65
2022/01/19 03:54:25;;;;;;;1999.90;999.90;;;3.90;99.90;;;;;;5072707;28;20127;-65
2022/01/19 03:56:51;;;;;;;1999.90;999.90;;;3.90;99.90;;;;;;5070958;28;20127;-65
2022/01/19 03:59:18;;;;;;;1999.90;999.90;;;4.00;99.90;;;;;;5053706;28;20410;-66
2022/01/19 04:01:43;;;;;;;1999.90;999.90;;;4.00;99.90;;;;;;5070890;28;20051;-64
2022/01/19 04:06:53;;;;;;;1999.90;999.90;;;4.00;99.90;;;;;;5050165;28;20395;-66
2022/01/19 04:09:20;;;;;;;1999.90;999.90;;;4.00;99.90;;;;;;5051166;28;20451;-65
2022/01/19 04:11:46;;;;;;;1999.90;999.90;;;4.00;99.90;;;;;;5068560;28;20124;-65
2022/01/19 04:14:21;;;;;;;1999.90;999.90;;;4.00;99.90;;;;;;5049660;28;20041;-64
2022/01/19 04:16:49;;;;;;;1999.90;999.90;;;4.00;99.90;;;;;;5051017;28;20041;-65
2022/01/19 04:21:41;;;;;;;1999.90;999.90;;;4.00;99.90;;;;;;5070940;28;20128;-65
2022/01/19 04:24:07;;;;;;;1999.90;999.90;;;3.90;99.90;;;;;;5056366;28;20036;-65
2022/01/19 04:26:33;;;;;;;1999.90;999.90;;;3.90;99.90;;;;;;5051033;28;20056;-65
2022/01/19 04:28:59;;;;;;;1999.90;999.90;;;3.80;99.90;;;;;;5047365;28;20063;-65
2022/01/19 04:31:24;;;;;;;1999.90;999.90;;;3.90;99.90;;;;;;5067394;28;20089;-64
2022/01/19 04:33:50;;;;;;;1999.90;999.90;;;3.80;99.90;;;;;;5050048;28;20348;-64
2022/01/19 04:36:27;;;;;;;1999.90;999.90;;;3.90;99.90;;;;;;5069377;28;20037;-64
2022/01/19 04:39:23;;;;;;;1999.90;999.90;;;3.90;99.90;;;;;;5071170;28;20045;-64
2022/01/19 04:47:37;;;;;;;1999.90;999.90;;;3.80;99.90;;;;;;5069462;28;20540;-64
2022/01/19 05:03:52;;;;;;;1999.90;999.90;;;3.80;99.90;;;;;;5073273;28;20037;-64
2022/01/19 05:06:42;;;;;;;1999.90;999.90;;;3.80;99.90;;;;;;5033825;28;20072;-64
2022/01/19 05:09:24;;;;;;;1999.90;999.90;;;3.70;99.90;;;;;;5034073;28;20092;-64
2022/01/19 05:14:34;;;;;;;1999.90;999.90;;;3.80;99.90;;;;;;5066119;28;20044;-64
2022/01/19 05:17:00;;;;;;;1999.90;999.90;;;3.70;99.90;;;;;;5053078;28;20394;-64
2022/01/19 05:19:26;;;;;;;1999.90;999.90;;;3.80;99.90;;;;;;5050565;28;20160;-64
2022/01/19 05:21:52;;;;;;;1999.90;999.90;;;3.80;99.90;;;;;;5059328;28;20445;-64
2022/01/19 05:24:20;;;;;;;1999.90;999.90;;;3.80;99.90;;;;;;5056957;28;20120;-64
2022/01/19 05:27:05;;;;;;;1999.90;999.90;;;3.80;99.90;;;;;;5036738;28;20106;-64
2022/01/19 05:29:34;;;;;;;1999.90;999.90;;;3.80;99.90;;;;;;5056016;28;20040;-64
2022/01/19 05:31:59;;;;;;;1999.90;999.90;;;3.80;99.90;;;;;;5074842;28;20061;-64
2022/01/19 05:34:26;;;;;;;1999.90;999.90;;;3.80;99.90;;;;;;5073826;28;20131;-64
2022/01/19 05:37:00;;;;;;;1999.90;999.90;;;3.80;99.90;;;;;;5072811;28;20051;-64
2022/01/19 05:39:43;;;;;;;1999.90;999.90;;;3.80;99.90;;;;;;5073995;28;20551;-64
2022/01/19 05:42:22;;;;;;;1999.90;999.90;;;3.80;99.90;;;;;;5073592;28;20048;-64
2022/01/19 05:44:48;;;;;;;1999.90;999.90;;;3.80;99.90;;;;;;5041497;28;20045;-64
2022/01/19 05:47:15;;;;;;;1999.90;999.90;;;3.80;99.90;;;;;;5039744;28;20047;-64
2022/01/19 05:49:43;;;;;;;1999.90;999.90;;;3.80;99.90;;;;;;5073093;28;20072;-64
2022/01/19 05:52:10;;;;;;;1999.90;999.90;;;3.80;99.90;;;;;;5072448;28;20078;-64
2022/01/19 05:54:36;;;;;;;1999.90;999.90;;;3.80;99.90;;;;;;5073343;28;20044;-64
2022/01/19 05:57:02;;;;;;;1999.90;999.90;;;3.80;99.90;;;;;;5073137;28;20114;-64
2022/01/19 05:59:35;;;;;;;1999.90;999.90;;;3.80;99.90;;;;;;5057284;28;20375;-64
2022/01/19 06:02:01;;;;;;;1999.90;999.90;;;3.80;99.90;;;;;;5074072;28;20056;-64
2022/01/19 06:04:26;;;;;;;1999.90;999.90;;;3.80;99.90;;;;;;5067615;28;20037;-64
2022/01/19 06:07:03;;;;;;;1999.90;999.90;;;3.80;99.90;;;;;;5034030;28;20053;-64
2022/01/19 06:09:49;;;;;;;1999.90;999.90;;;3.70;99.90;;;;;;5032562;28;20103;-64
2022/01/19 06:12:16;;;;;;;1999.90;999.90;;;3.70;99.90;;;;;;5031988;28;20041;-64
2022/01/19 06:14:44;;;;;;;1999.90;999.90;;;3.70;99.90;;;;;;5035607;28;20059;-64
2022/01/19 06:17:13;;;;;;;1999.90;999.90;;;3.70;99.90;;;;;;5072497;28;20493;-64
2022/01/19 06:19:40;;;;;;;1999.90;999.90;;;3.70;99.90;;;;;;5056933;28;20506;-64
2022/01/19 06:22:08;;;;;;;1999.90;999.90;;;3.60;99.90;;;;;;5032716;28;20369;-64
2022/01/19 06:24:34;;;;;;;1999.90;999.90;;;3.70;99.90;;;;;;5053582;28;20128;-64
2022/01/19 06:27:00;;;;;;;1999.90;999.90;;;3.70;99.90;;;;;;5051695;28;20107;-64
2022/01/19 06:29:26;;;;;;;1999.90;999.90;;;3.70;99.90;;;;;;5052304;28;20059;-65
2022/01/19 06:31:52;;;;;;;1999.90;999.90;;;3.70;99.90;;;;;;5058199;28;20390;-65
2022/01/19 06:34:18;;;;;;;1999.90;999.90;;;3.70;99.90;;;;;;5071620;28;20052;-64
2022/01/19 06:37:13;;;;;;;1999.90;999.90;;;3.70;99.90;;;;;;5073216;28;20044;-65
2022/01/19 06:39:43;;;;;;;1999.90;999.90;;;3.60;99.90;;;;;;5071320;28;20076;-64
2022/01/19 06:42:09;;;;;;;1999.90;999.90;;;3.70;99.90;;;;;;5071572;28;20503;-64
2022/01/19 06:44:36;;;;;;;1999.90;999.90;;;3.70;99.90;;;;;;5043279;28;20037;-64
2022/01/19 06:47:04;;;;;;;1999.90;999.90;;;3.70;99.90;;;;;;5014472;28;20083;-64
2022/01/19 06:49:29;;;;;;;1999.90;999.90;;;3.70;99.90;;;;;;5038014;28;20044;-64
2022/01/19 06:51:57;;;;;;;1999.90;999.90;;;3.70;99.90;;;;;;5052025;28;20555;-64
2022/01/19 06:54:23;;;;;;;1999.90;999.90;;;3.70;99.90;;;;;;5052118;28;20152;-64
2022/01/19 06:56:48;;;;;;;1999.90;999.90;;;3.70;99.90;;;;;;5051921;28;20044;-64
2022/01/19 06:59:23;;;;;;;1999.90;999.90;;;3.70;99.90;;;;;;5049885;28;20056;-64
2022/01/19 07:02:00;;;;;;;1999.90;999.90;;;3.70;99.90;;;;;;5054059;28;20048;-64
2022/01/19 07:04:47;;;;;;;1999.90;999.90;;;3.70;99.90;;;;;;5065099;28;20083;-65
2022/01/19 07:07:13;;;;;;;1999.90;999.90;;;3.70;99.90;;;;;;5049817;28;20048;-64
2022/01/19 07:09:55;;;;;;;1999.90;999.90;;;3.70;99.90;;;;;;5051708;28;20049;-64
2022/01/19 07:12:20;;;;;;;1999.90;999.90;;;3.70;99.90;;;;;;5051920;28;20043;-64
2022/01/19 07:14:47;;;;;;;1999.90;999.90;;;3.70;99.90;;;;;;5059992;28;20055;-64
2022/01/19 07:17:13;;;;;;;1999.90;999.90;;;3.70;99.90;;;;;;5072316;28;20051;-65
2022/01/19 07:19:40;;;;;;;1999.90;999.90;;;3.70;99.90;;;;;;5056558;28;20503;-64
2022/01/19 07:22:06;;;;;;;1999.90;999.90;;;3.70;99.90;;;;;;5030414;28;20133;-64
2022/01/19 07:24:32;;;;;;;1999.90;999.90;;;3.70;99.90;;;;;;5035702;28;20406;-64
2022/01/19 07:26:59;;;;;;;1999.90;999.90;;;3.80;99.90;;;;;;5063621;28;20037;-64
2022/01/19 07:29:27;;;;;;;1999.90;999.90;;;3.80;99.90;;;;;;5049184;28;20049;-65
2022/01/19 07:31:57;;;;;;;1999.90;999.90;;;3.70;99.90;;;;;;5034140;28;20472;-64
2022/01/19 07:34:23;;;;;;;1999.90;999.90;;;3.80;99.90;;;;;;5062350;28;20506;-64
2022/01/19 07:36:49;;;;;;;1999.90;999.90;;;3.80;99.90;;;;;;5053466;28;20501;-64
2022/01/19 07:39:15;;;;;;;1999.90;999.90;;;3.80;99.90;;;;;;5071700;28;20040;-65
2022/01/19 07:41:43;;;;;;;1999.90;999.90;;;3.80;99.90;;;;;;5071600;28;20052;-64
2022/01/19 07:44:44;;;;;;;1999.90;999.90;;;3.80;99.90;;;;;;5040063;28;20510;-65
2022/01/19 07:47:38;;;;;;;1999.90;999.90;;;3.80;99.90;;;;;;5031609;28;20145;-64
2022/01/19 07:50:18;;;;;;;1999.90;999.90;;;3.80;99.90;;;;;;5030597;28;20048;-64
2022/01/19 07:52:53;;;;;;;1999.90;999.90;;;3.80;99.90;;;;;;5060766;28;20053;-64
2022/01/19 07:55:22;;;;;;;1999.90;999.90;;;3.90;99.90;;;;;;5067513;28;20043;-64
2022/01/19 07:57:52;;;;;;;1999.90;999.90;;;3.90;99.90;;;;;;5050684;28;20083;-64
2022/01/19 08:00:35;;;;;;;1999.90;999.90;;;3.90;99.90;;;;;;5058549;28;20506;-64
2022/01/19 08:03:21;;;;;;;1999.90;999.90;;;3.90;99.90;;;;;;5072708;28;20471;-64
2022/01/19 08:05:57;;;;;;;1999.90;999.90;;;3.90;99.90;;;;;;5053744;28;20510;-64
2022/01/19 08:08:24;;;;;;;1999.90;999.90;;;3.90;99.90;;;;;;5050832;28;20049;-64
2022/01/19 08:10:50;;;;;;;1999.90;999.90;;;3.90;99.90;;;;;;5087147;28;20041;-64
2022/01/19 08:13:16;;;;;;;1999.90;999.90;;;3.90;99.90;;;;;;5071413;28;20076;-64
2022/01/19 08:15:42;;;;;;;1999.90;999.90;;;3.90;99.90;;;;;;5053896;28;20049;-64
2022/01/19 08:18:09;;;;;;;1999.90;999.90;;;3.90;99.90;;;;;;5043923;28;20085;-64
2022/01/19 08:20:35;;;;;;;1999.90;999.90;;;3.90;99.90;;;;;;5048529;28;20083;-64
2022/01/19 08:23:03;;;;;;;1999.90;999.90;;;3.90;99.90;;;;;;5040086;28;20128;-65
2022/01/19 08:25:40;;;;;;;1999.90;999.90;;;3.90;99.90;;;;;;5037244;28;20094;-66
2022/01/19 08:28:07;;;;;;;1999.90;999.90;;;3.90;99.90;;;;;;5054168;28;20048;-65
2022/01/19 08:30:34;;;;;;;1999.90;999.90;;;3.90;99.90;;;;;;5059768;28;20037;-65
2022/01/19 08:33:02;;;;;;;1999.90;999.90;;;3.90;99.90;;;;;;5053775;28;20041;-66
2022/01/19 08:35:37;;;;;;;1999.90;999.90;;;3.90;99.90;;;;;;5056155;28;20048;-66
2022/01/19 08:38:21;;;;;;;1999.90;999.90;;;3.90;99.90;;;;;;5054414;28;20091;-65
2022/01/19 08:40:54;;;;;;;;;;;3.90;99.90;;;;;;5056879;28;20400;-65
2022/01/19 08:43:24;;;;;;;1999.90;999.90;;;3.90;99.90;;;;;;5069397;28;19952;-67
2022/01/19 08:45:51;;;;;;;1999.90;999.90;;;3.90;99.90;;;;;;5071948;28;20084;-64
2022/01/19 08:48:21;;;;;;;1999.90;999.90;;;3.90;99.90;;;;;;5069140;28;20044;-64
2022/01/19 08:50:50;;;;;;;1999.90;999.90;;;3.80;99.90;;;;;;5056525;28;20041;-65
2022/01/19 08:53:26;;;;;;;1999.90;999.90;;;3.80;99.90;;;;;;5053262;28;20052;-64
2022/01/19 08:56:05;;;;;;;1999.90;999.90;;;3.80;99.90;;;;;;5040435;28;20492;-67
2022/01/19 08:58:31;;;;;;;1999.90;999.90;;;3.80;99.90;;;;;;5051033;28;20052;-65
2022/01/19 09:00:57;;;;;;;1999.90;999.90;;;3.80;99.90;;;;;;5054419;28;20395;-66
2022/01/19 09:03:23;;;;;;;1999.90;999.90;;;3.80;99.90;;;;;;5070090;28;20059;-66
2022/01/19 09:05:49;;;;;;;1999.90;999.90;;;3.80;99.90;;;;;;5058617;28;20098;-64
2022/01/19 09:08:15;;;;;;;1999.90;999.90;;;3.80;99.90;;;;;;5059874;28;20470;-65
2022/01/19 09:10:41;;;;;;;1999.90;999.90;;;3.80;99.90;;;;;;5057101;28;20399;-65
2022/01/19 09:13:09;;;;;;;1999.90;999.90;;;3.90;99.90;;;;;;5064169;28;20045;-65
2022/01/19 09:15:35;;;;;;;1999.90;999.90;;;3.90;99.90;;;;;;5054673;28;20107;-65
2022/01/19 09:18:00;;;;;;;1999.90;999.90;;;3.90;99.90;;;;;;5054758;28;20048;-67
2022/01/19 09:20:26;;;;;;;1999.90;999.90;;;3.90;99.90;;;;;;5063909;28;20036;-66
2022/01/19 09:22:52;;;;;;;1999.90;999.90;;;3.90;99.90;;;;;;5069497;28;20041;-65
2022/01/19 09:25:18;;;;;;;1999.90;999.90;;;3.80;99.90;;;;;;5063201;28;20041;-65
2022/01/19 09:27:44;;;;;;;1999.90;999.90;;;3.90;99.90;;;;;;5074049;28;20122;-65
2022/01/19 09:30:15;;;;;;;1999.90;999.90;;;3.90;99.90;;;;;;5048707;28;20059;-65
2022/01/19 09:32:44;;;;;;;1999.90;999.90;;;3.90;99.90;;;;;;5055094;28;20045;-65
2022/01/19 09:35:10;;;;;;;1999.90;999.90;;;4.00;99.90;;;;;;5035364;28;20057;-66
2022/01/19 09:37:38;;;;;;;1999.90;999.90;;;4.10;99.90;;;;;;5044591;28;20071;-65
2022/01/19 09:40:06;;;;;;;1999.90;999.90;;;4.10;99.90;;;;;;5074565;28;20047;-65
2022/01/19 09:42:32;;;;;;;1999.90;999.90;;;4.10;99.90;;;;;;5072603;28;20052;-66
2022/01/19 09:44:58;;;;;;;1999.90;999.90;;;4.10;99.90;;;;;;5045357;28;20052;-65
2022/01/19 09:47:24;;;;;;;1999.90;999.90;;;4.10;99.90;;;;;;5067236;28;20040;-65
2022/01/19 09:49:49;;;;;;;1999.90;999.90;;;4.20;99.90;;;;;;5067889;28;20067;-66
2022/01/19 09:52:15;;;;;;;1999.90;999.90;;;4.20;99.90;;;;;;5065981;28;20041;-65
2022/01/19 09:54:41;;;;;;;1999.90;999.90;;;4.20;99.90;;;;;;5072287;28;20075;-66
2022/01/19 09:57:07;;;;;;;1999.90;999.90;;;4.20;99.90;;;;;;5053483;28;20479;-65
2022/01/19 09:59:33;;;;;;;1999.90;999.90;;;4.20;99.90;;;;;;5053859;28;20052;-65
2022/01/19 10:02:03;;;;;;;1999.90;999.90;;;4.20;99.90;;;;;;5053365;28;20040;-66
2022/01/19 10:04:32;;;;;;;1999.90;999.90;;;4.20;99.90;;;;;;5054945;28;20127;-65
2022/01/19 10:07:10;;;;;;;1999.90;999.90;;;4.30;99.90;;;;;;5052930;28;20415;-66
2022/01/19 10:09:52;;;;;;;1999.90;999.90;;;4.30;99.90;;;;;;5043900;28;20075;-66
2022/01/19 10:18:08;;;;;;;1999.90;999.90;;;4.30;99.90;;;;;;5052026;28;20399;-67
2022/01/19 10:20:34;;;;;;;1999.90;999.90;;;4.30;99.90;;;;;;5047263;28;20048;-67
2022/01/19 10:23:00;;;;;;;1999.90;999.90;;;4.30;99.90;;;;;;5058658;28;20452;-66
2022/01/19 10:25:47;;;;;;;1999.90;999.90;;;4.30;99.90;;;;;;5072708;28;20048;-67
2022/01/19 10:28:13;;;;;;;1999.90;999.90;;;4.40;99.90;;;;;;5033701;28;20067;-66
2022/01/19 10:30:39;;;;;;;1999.90;999.90;;;4.30;99.90;;;;;;5057244;28;20475;-65
2022/01/19 10:33:05;;;;;;;1999.90;999.90;;;4.30;99.90;;;;;;5071938;28;20056;-67
2022/01/19 10:35:36;;;;;;;1999.90;999.90;;;4.30;99.90;;;;;;5072841;28;20055;-66
2022/01/19 10:38:08;;;;;;;1999.90;999.90;;;4.20;99.90;;;;;;5068622;28;20084;-67
2022/01/19 10:40:37;;;;;;;1999.90;999.90;;;4.30;99.90;;;;;;5066034;28;20058;-66
2022/01/19 10:43:24;;;;;;;1999.90;999.90;;;4.30;99.90;;;;;;5050991;28;20044;-67
2022/01/19 10:45:50;;;;;;;1999.90;999.90;;;4.30;99.90;;;;;;5049117;28;20082;-66
2022/01/19 10:48:38;;;;;;;1999.90;999.90;;;4.20;99.90;;;;;;5048311;28;20415;-66
2022/01/19 10:51:08;;;;;;;1999.90;999.90;;;4.30;99.90;;;;;;5032911;28;20054;-66
2022/01/19 10:53:34;;;;;;;1999.90;999.90;;;4.20;99.90;;;;;;5031083;28;20049;-66
2022/01/19 10:56:01;;;;;;;1999.90;999.90;;;4.20;99.90;;;;;;5033209;28;20103;-65
2022/01/19 10:58:27;;;;;;;1999.90;999.90;;;4.20;99.90;;;;;;5064063;28;20040;-65
2022/01/19 11:00:55;;;;;;;1999.90;999.90;;;4.20;99.90;;;;;;5063424;28;20045;-66
2022/01/19 11:03:25;;;;;;;1999.90;999.90;;;4.20;99.90;;;;;;5052537;28;20033;-66
2022/01/19 11:05:55;;;;;;;1999.90;999.90;;;4.20;99.90;;;;;;5053074;28;20121;-65
2022/01/19 11:08:23;;;;;;;1999.90;999.90;;;4.20;99.90;;;;;;5049582;28;20067;-66
2022/01/19 11:10:53;;;;;;;1999.90;999.90;;;4.20;99.90;;;;;;5052067;28;20387;-65
2022/01/19 11:13:28;;;;;;;1999.90;999.90;;;4.20;99.90;;;;;;5051882;28;20063;-66
2022/01/19 11:15:56;;;;;;;1999.90;999.90;;;4.20;99.90;;;;;;5054563;28;20045;-66
2022/01/19 11:18:25;;;;;;;1999.90;999.90;;;4.20;99.90;;;;;;5052551;28;20044;-67
2022/01/19 11:20:53;;;;;;;1999.90;999.90;;;4.20;99.90;;;;;;5051571;28;20060;-66
2022/01/19 11:23:52;;;;;;;1999.90;999.90;;;4.20;99.90;;;;;;5052177;28;20060;-67
2022/01/19 11:26:22;;;;;;;1999.90;999.90;;;4.20;99.90;;;;;;5047743;28;20059;-67
2022/01/19 11:28:50;;;;;;;1999.90;999.90;;;4.20;99.90;;;;;;5051175;28;20376;-67
2022/01/19 11:31:20;;;;;;;1999.90;999.90;;;4.20;99.90;;;;;;5032644;28;20052;-67
2022/01/19 11:33:52;;;;;;;1999.90;999.90;;;4.20;99.90;;;;;;5063338;28;20047;-67
2022/01/19 11:36:21;;;;;;;1999.90;999.90;;;4.30;99.90;;;;;;5070865;28;20048;-66
2022/01/19 11:38:50;;;;;;;1999.90;999.90;;;4.20;99.90;;;;;;5072695;28;20048;-67
2022/01/19 11:41:16;;;;;;;1999.90;999.90;;;4.30;99.90;;;;;;5072045;28;20036;-66
2022/01/19 11:43:54;;;;;;;1999.90;999.90;;;4.30;99.90;;;;;;5058174;28;20227;-66
2022/01/19 11:46:27;;;;;;;1999.90;999.90;;;4.30;99.90;;;;;;5032890;28;20075;-67
2022/01/19 11:48:53;;;;;;;;;;;4.20;99.90;;;;;;5030420;28;20056;-67
2022/01/19 11:51:27;;;;;;;1999.90;999.90;;;4.30;99.90;;;;;;5060133;28;19920;-67
2022/01/19 11:54:16;;;;;;;1999.90;999.90;;;4.30;99.90;;;;;;5076549;28;20506;-66
2022/01/19 11:57:02;;;;;;;1999.90;999.90;;;4.30;99.90;;;;;;5067961;28;20118;-66
2022/01/19 11:59:46;;;;;;;1999.90;999.90;;;4.30;99.90;;;;;;5054850;28;20505;-67
2022/01/19 12:02:21;;;;;;;1999.90;999.90;;;4.30;99.90;;;;;;5055308;28;20048;-67
2022/01/19 12:04:50;;;;;;;1999.90;999.90;;;4.40;99.90;;;;;;5055064;28;20434;-66
2022/01/19 12:07:35;;;;;;;1999.90;999.90;;;4.40;99.90;;;;;;5056199;28;20045;-66
2022/01/19 12:10:03;;;;;;;1999.90;999.90;;;4.40;99.90;;;;;;5035673;28;20092;-67
2022/01/19 12:12:33;;;;;;;1999.90;999.90;;;4.50;99.90;;;;;;5036061;28;20057;-67
2022/01/19 12:15:03;;;;;;;1999.90;999.90;;;4.60;99.90;;;;;;5058278;28;20185;-66
2022/01/19 12:17:54;;;;;;;1999.90;999.90;;;4.60;99.90;;;;;;5074832;28;20052;-66
2022/01/19 12:20:50;;;;;;;1999.90;999.90;;;4.60;99.90;;;;;;5075950;28;20501;-67
2022/01/19 12:23:28;;;;;;;1999.90;999.90;;;4.60;99.90;;;;;;5068960;28;20040;-66
2022/01/19 12:25:55;;;;;;;1999.90;999.90;;;4.60;99.90;;;;;;5062294;28;20040;-66
2022/01/19 12:28:40;;;;;;;1999.90;999.90;;;4.60;99.90;;;;;;5076234;28;20056;-67
2022/01/19 12:31:22;;;;;;;1999.90;999.90;;;4.60;99.90;;;;;;5056397;28;20574;-67
2022/01/19 12:34:03;;;;;;;1999.90;999.90;;;4.60;99.90;;;;;;5055956;28;20049;-67
2022/01/19 12:36:50;;;;;;;1999.90;999.90;;;4.60;99.90;;;;;;5036033;28;20097;-66
2022/01/19 12:39:26;;;;;;;1999.90;999.90;;;4.50;99.90;;;;;;5035555;28;20162;-66
2022/01/19 12:42:01;;;;;;;1999.90;999.90;;;4.50;99.90;;;;;;5035641;28;20061;-66
2022/01/19 12:44:55;;;;;;;1999.90;999.90;;;4.50;99.90;;;;;;5037786;28;20179;-66
2022/01/19 12:47:24;;;;;;;1999.90;999.90;;;4.60;99.90;;;;;;5035763;28;20083;-67
2022/01/19 12:49:51;;;;;;;1999.90;999.90;;;4.60;99.90;;;;;;5035591;28;20057;-67
2022/01/19 12:52:18;;;;;;;1999.90;999.90;;;4.60;99.90;;;;;;5047718;28;20479;-65
2022/01/19 12:54:44;;;;;;;1999.90;999.90;;;4.70;99.90;;;;;;5074089;28;20060;-66
2022/01/19 12:57:15;;;;;;;1999.90;999.90;;;4.70;99.90;;;;;;5075070;28;20048;-66
2022/01/19 12:59:44;;;;;;;1999.90;999.90;;;4.70;99.90;;;;;;5074715;28;20044;-65
2022/01/19 13:02:13;;;;;;;1999.90;999.90;;;4.70;99.90;;;;;;5073370;28;20044;-65
2022/01/19 13:04:41;;;;;;;1999.90;999.90;;;4.80;99.90;;;;;;5067641;28;20074;-67
2022/01/19 13:07:20;;;;;;;1999.90;999.90;;;4.80;99.90;;;;;;5054578;28;20045;-67
2022/01/19 13:10:18;;;;;;;1999.90;999.90;;;4.80;99.90;;;;;;5059159;28;20171;-66
2022/01/19 13:12:58;;;;;;;1999.90;999.90;;;4.80;99.90;;;;;;5075269;28;20055;-66
2022/01/19 13:15:40;;;;;;;1999.90;999.90;;;4.80;99.90;;;;;;5060740;28;20045;-66
2022/01/19 13:18:05;;;;;;;1999.90;999.90;;;4.80;99.90;;;;;;5054716;28;20048;-67
2022/01/19 13:20:31;;;;;;;1999.90;999.90;;;4.90;99.90;;;;;;5074430;28;20056;-66
2022/01/19 13:22:58;;;;;;;1999.90;999.90;;;4.90;99.90;;;;;;5070276;28;20041;-66
2022/01/19 13:25:26;;;;;;;1999.90;999.90;;;4.90;99.90;;;;;;5054636;28;20052;-67
2022/01/19 13:27:55;;;;;;;1999.90;999.90;;;4.90;99.90;;;;;;5061779;28;20044;-67
2022/01/19 13:30:22;;;;;;;1999.90;999.90;;;4.90;99.90;;;;;;5060811;28;20115;-65
2022/01/19 13:32:48;;;;;;;1999.90;999.90;;;4.90;99.90;;;;;;5053414;28;20065;-66
2022/01/19 13:35:15;;;;;;;1999.90;999.90;;;4.90;99.90;;;;;;5053442;28;20490;-66